• Join FlightAware (Why Join?)
  • Login
  • US Flag 
09:08PM EDT


 

Airport Tracker/Info


-or-


 

Live Flight TrackerFlight Track Log ✈ SWA407 ✈ 30-May-2013 ✈ KATL - KSFO

Flight Track Log - Related Links

Times and Time Zones

All times are in EDT time to prevent confusion due to time zone crossing. See the SWA407 flight status page for this flight to view local times or setup timezone preferences in your user account.

Time Position Orientation Groundspeed Altitude Reporting Facility
EDT Latitude Longitude Course Direction KTS MPH feet Rate Location/Type
05:13PM 33.6519 -84.3708 252° West 446 513 2,700  Level Atlanta Center
05:14PM 33.6667 -84.3167 72° East 240 276 4,000 2,280 Climbing Atlanta TRACON
05:16PM 33.8000 -84.3167 360° North 305 351 9,300 2,220 Climbing Atlanta TRACON
05:18PM 33.8100 -84.5464 273° West 350 403 13,200 1,560 Climbing Atlanta Center
05:19PM 33.7747 -84.7086 252° West  Level FlightAware Approximate
05:19PM 33.7883 -84.6711 258° West 378 435 14,200  Level Atlanta Center
05:20PM 33.7606 -84.7908 254° West 378 435 17,100 2,400 Climbing Atlanta Center
05:21PM 33.7264 -84.9256 253° West 378 435 19,100 2,100 Climbing Atlanta Center
05:22PM 33.6942 -85.0550 253° West 393 452 21,300 2,100 Climbing Atlanta Center
05:23PM 33.6594 -85.1869 252° West 406 467 23,300 1,800 Climbing Atlanta Center
05:24PM 33.6497 -85.3239 265° West 412 474 25,000 1,560 Climbing Atlanta Center
05:25PM 33.6544 -85.4689 272° West 438 504 26,500 1,560 Climbing Atlanta Center
05:26PM 33.6569 -85.6186 271° West 445 512 28,200 1,800 Climbing Atlanta Center
05:27PM 33.6589 -85.7658 271° West 445 512 30,200 1,680 Climbing Atlanta Center
05:28PM 33.6592 -85.9056 270° West 430 495 31,600 1,320 Climbing Atlanta Center
05:29PM 33.6589 -86.0478 270° West 430 495 32,900 1,200 Climbing Atlanta Center
05:30PM 33.6628 -86.1953 272° West 435 501 34,100 1,140 Climbing Atlanta Center
05:31PM 33.6642 -86.3425 271° West 440 506 35,200 900 Climbing Atlanta Center
05:32PM 33.6656 -86.4872 271° West 440 506 36,000 360 Climbing Atlanta Center
05:33PM 33.6669 -86.6297 271° West 440 506 36,000  Level Atlanta Center
05:34PM 33.6658 -86.7744 270° West 440 506 36,000  Level Atlanta Center
05:35PM 33.6731 -86.9169 274° West 440 506 36,000  Level Atlanta Center
05:37PM 33.7269 -87.1728 284° West 441 507 36,000  Level Memphis Center
05:38PM 33.7556 -87.3117 284° West 436 502 36,000  Level Memphis Center
05:39PM 33.7839 -87.4506 284° West 436 502 36,000  Level Memphis Center
05:40PM 33.8161 -87.5844 286° West 430 495 36,000  Level Memphis Center
05:41PM 33.8442 -87.7286 283° West 430 495 36,000  Level Memphis Center
05:42PM 33.8700 -87.8656 283° West 425 489 36,000  Level Memphis Center
05:43PM 33.9350 -87.9839 304° West 425 489 36,000  Level Memphis Center
05:44PM 34.0039 -88.0972 306° West 422 486 36,000  Level Memphis Center
05:45PM 34.0642 -88.2058 304° West 422 486 36,000  Level Memphis Center
05:46PM 34.1350 -88.3194 307° West 428 493 36,000  Level Memphis Center
05:47PM 34.2100 -88.4308 309° West 428 493 36,000  Level Memphis Center
05:48PM 34.2825 -88.5447 308° West 428 493 36,000  Level Memphis Center
05:49PM 34.3489 -88.6617 305° West 433 498 36,000  Level Memphis Center
05:50PM 34.3819 -88.7994 286° West 412 474 36,000  Level Memphis Center
05:51PM 34.4003 -88.9325 280° West 412 474 36,000  Level Memphis Center
05:52PM 34.4228 -89.0706 281° West 419 482 36,000  Level Memphis Center
05:53PM 34.4450 -89.2214 280° West 419 482 36,000  Level Memphis Center
05:54PM 34.4628 -89.3569 279° West 419 482 36,000  Level Memphis Center
05:55PM 34.4828 -89.4956 280° West 419 482 36,000  Level Memphis Center
05:56PM 34.5003 -89.6339 279° West 419 482 36,000  Level Memphis Center
05:57PM 34.5197 -89.7750 280° West 424 488 36,000  Level Memphis Center
05:58PM 34.5392 -89.9183 279° West 424 488 36,000  Level Memphis Center
05:59PM 34.5606 -90.0419 282° West 424 488 36,000  Level Memphis Center
06:00PM 34.6067 -90.1678 294° West 412 474 36,000  Level Memphis Center
06:01PM 34.6547 -90.2889 296° West 407 468 36,000  Level Memphis Center
06:02PM 34.7047 -90.4103 297° West 401 461 36,000  Level Memphis Center
06:03PM 34.7569 -90.5467 295° West 401 461 36,000  Level Memphis Center
06:04PM 34.8025 -90.6683 295° West 401 461 36,000  Level Memphis Center
06:05PM 34.8481 -90.7922 294° West 401 461 36,000  Level Memphis Center
06:06PM 34.8956 -90.9142 295° West 401 461 36,000  Level Memphis Center
06:07PM 34.9408 -91.0361 294° West 401 461 36,000  Level Memphis Center
06:08PM 34.9861 -91.1606 294° West 401 461 36,000  Level Memphis Center
06:09PM 35.0311 -91.2828 294° West 396 456 36,000  Level Memphis Center
06:10PM 35.0803 -91.4025 297° West 396 456 36,000  Level Memphis Center
06:11PM 35.1208 -91.5222 293° West 396 456 36,000  Level Memphis Center
06:12PM 35.1614 -91.6475 292° West 396 456 36,000  Level Memphis Center
06:13PM 35.1725 -91.7822 276° West 396 456 36,000  Level Memphis Center
06:14PM 35.1811 -91.9194 274° West 402 463 36,000  Level Memphis Center
06:15PM 35.1878 -92.0542 274° West 409 471 36,000  Level Memphis Center
06:16PM 35.1942 -92.1917 273° West 402 463 36,000  Level Memphis Center
06:17PM 35.2006 -92.3239 273° West 402 463 36,000  Level Memphis Center
06:18PM 35.2089 -92.4561 274° West 402 463 36,000  Level Memphis Center
06:19PM 35.2150 -92.5886 273° West 402 463 36,000  Level Memphis Center
06:20PM 35.2250 -92.7158 276° West 413 475 36,000  Level Memphis Center
06:21PM 35.2286 -92.8481 272° West 413 475 36,000  Level Memphis Center
06:22PM 35.2364 -92.9806 274° West 400 460 36,000  Level Memphis Center
06:23PM 35.2419 -93.1156 273° West 400 460 36,000  Level Memphis Center
06:24PM 35.2472 -93.2506 273° West 406 467 36,000  Level Memphis Center
06:25PM 35.2503 -93.3828 272° West 400 460 36,000  Level Memphis Center
06:26PM 35.2572 -93.5203 274° West 400 460 36,000  Level Memphis Center
06:27PM 35.2642 -93.6578 274° West 407 468 36,000  Level Memphis Center
06:28PM 35.2647 -93.7953 270° West 407 468 36,000  Level Memphis Center
06:29PM 35.2711 -93.9328 273° West 407 468 36,000  Level Memphis Center
06:30PM 35.2775 -94.0706 273° West 407 468 36,000  Level Memphis Center
06:31PM 35.2819 -94.2053 272° West 407 468 36,000  Level Memphis Center
06:32PM 35.2858 -94.3456 272° West 407 468 36,000  Level Memphis Center
06:33PM 35.2897 -94.4831 272° West 407 468 36,000  Level Memphis Center
06:36PM 35.3050 -94.8469 273° West 410 472 36,000  Level Fort Worth Center
06:37PM 35.3161 -94.9864 276° West 415 478 36,000  Level Fort Worth Center
06:38PM 35.3333 -95.1286 278° West 420 483 36,000  Level Fort Worth Center
06:39PM 35.3503 -95.2656 279° West 420 483 36,000  Level Fort Worth Center
06:40PM 35.3694 -95.4050 280° West 426 490 36,000  Level Fort Worth Center
06:41PM 35.3922 -95.5444 281° West 426 490 36,000  Level Fort Worth Center
06:42PM 35.4172 -95.6814 283° West 426 490 36,000  Level Fort Worth Center
06:43PM 35.4442 -95.8211 283° West 426 490 36,000  Level Fort Worth Center
06:44PM 35.4622 -95.9431 280° West 421 484 36,000  Level Fort Worth Center
06:45PM 35.4847 -96.0803 281° West 416 479 36,000  Level Fort Worth Center
06:46PM 35.5050 -96.2228 280° West 416 479 36,000  Level Fort Worth Center
06:47PM 35.5250 -96.3603 280° West 416 479 36,000  Level Fort Worth Center
06:48PM 35.5450 -96.4958 280° West 421 484 36,000  Level Kansas City Center
06:49PM 35.5572 -96.6372 276° West 420 483 36,000  Level Kansas City Center
06:50PM 35.5656 -96.7767 274° West 416 479 36,000  Level Kansas City Center
06:50PM 35.5697 -96.8394 275° West 411 473 36,000  Level Fort Worth Center
06:51PM 35.5806 -96.9772 276° West 404 465 36,000  Level Fort Worth Center
06:52PM 35.5894 -97.1125 275° West 404 465 36,000  Level Fort Worth Center
06:53PM 35.6022 -97.2528 276° West 404 465 36,000  Level Fort Worth Center
06:54PM 35.6128 -97.4058 275° West 410 472 36,000  Level Fort Worth Center
06:55PM 35.6208 -97.5464 274° West 410 472 36,000  Level Fort Worth Center
06:56PM 35.6250 -97.6247 274° West 407 468 36,000  Level Kansas City Center
06:57PM 35.6333 -97.7608 274° West 404 465 36,000  Level Kansas City Center
06:58PM 35.6433 -97.9242 274° West 403 464 36,000  Level Kansas City Center
06:59PM 35.6522 -98.0617 275° West 405 466 36,000  Level Kansas City Center
07:00PM 35.6600 -98.1997 274° West 406 467 36,000 240 Level Kansas City Center
07:01PM 35.6669 -98.3383 274° West 406 467 36,600 780 Climbing Kansas City Center
07:02PM 35.6744 -98.4600 274° West 394 453 37,600 600 Climbing Kansas City Center
07:03PM 35.6819 -98.5956 274° West 393 452 37,900 180 Climbing Kansas City Center
07:04PM 35.6922 -98.7642 274° West 406 467 38,000  Climbing Kansas City Center
07:05PM 35.7003 -98.9103 274° West 419 482 38,000  Level Kansas City Center
07:07PM 35.7125 -99.2031 273° West 421 484 38,000  Level Fort Worth Center
07:08PM 35.7208 -99.3386 274° West 416 479 38,000  Level Fort Worth Center
07:10PM 35.7353 -99.6117 274° West 399 459 38,000  Level Albuquerque Center
07:11PM 35.7433 -99.7778 273° West 402 463 38,000  Level Albuquerque Center
07:12PM 35.7503 -99.9169 274° West 405 466 38,000  Level Albuquerque Center
07:13PM 35.7586 -100.0578 274° West 409 471 38,000  Level Albuquerque Center
07:14PM 35.7592 -100.1969 270° West 409 471 38,000  Level Albuquerque Center
07:15PM 35.7683 -100.3344 275° West 403 464 38,000  Level Albuquerque Center
07:16PM 35.7950 -100.4714 284° West 408 470 38,000  Level Albuquerque Center
07:17PM 35.8164 -100.6086 281° West 407 468 38,000  Level Albuquerque Center
07:18PM 35.8114 -100.7444 267° West 395 455 38,000  Level Albuquerque Center
07:19PM 35.8086 -100.8828 269° West 399 459 38,000  Level Albuquerque Center
07:20PM 35.8061 -101.0492 269° West 402 463 38,000  Level Albuquerque Center
07:21PM 35.8033 -101.1869 269° West 404 465 38,000  Level Albuquerque Center
07:22PM 35.8008 -101.3203 269° West 399 459 38,000  Level Albuquerque Center
07:23PM 35.7972 -101.4558 268° West 398 458 38,000  Level Albuquerque Center
07:25PM 35.7944 -101.5911 269° West 399 459 38,000  Level Albuquerque Center
07:26PM 35.7908 -101.7272 268° West 401 461 38,000  Level Albuquerque Center
07:27PM 35.7875 -101.8906 269° West 402 463 38,000  Level Albuquerque Center
07:28PM 35.7831 -102.0267 268° West 402 463 38,000  Level Albuquerque Center
07:29PM 35.7789 -102.1597 268° West 394 453 38,000  Level Albuquerque Center
07:30PM 35.7758 -102.2922 268° West 391 450 38,000  Level Albuquerque Center
07:31PM 35.7708 -102.4244 267° West 390 449 38,000  Level Albuquerque Center
07:32PM 35.7669 -102.5569 268° West 390 449 38,000  Level Albuquerque Center
07:33PM 35.7625 -102.6897 268° West 390 449 38,000  Level Albuquerque Center
07:34PM 35.7561 -102.8489 267° West 390 449 38,000  Level Albuquerque Center
07:35PM 35.7525 -102.9856 268° West 392 451 38,000  Level Albuquerque Center
07:36PM 35.7483 -103.1200 268° West 391 450 38,000  Level Albuquerque Center
07:37PM 35.7428 -103.2533 267° West 389 448 38,000  Level Albuquerque Center
07:38PM 35.7378 -103.3872 267° West 390 449 38,000  Level Albuquerque Center
07:39PM 35.7333 -103.5206 268° West 389 448 38,000  Level Albuquerque Center
07:40PM 35.7269 -103.6544 267° West 390 449 38,000  Level Albuquerque Center
07:41PM 35.7217 -103.7881 267° West 389 448 38,000  Level Albuquerque Center
07:42PM 35.7167 -103.9208 267° West 388 447 38,000  Level Albuquerque Center
07:43PM 35.7092 -104.0764 267° West 389 448 38,000  Level Albuquerque Center
07:44PM 35.7036 -104.2097 267° West 390 449 38,000  Level Albuquerque Center
07:45PM 35.6969 -104.3433 267° West 391 450 38,000  Level Albuquerque Center
07:46PM 35.6903 -104.4772 267° West 391 450 38,000  Level Albuquerque Center
07:47PM 35.6844 -104.6111 267° West 391 450 38,000  Level Albuquerque Center
07:48PM 35.6775 -104.7458 266° West 393 452 38,000  Level Albuquerque Center
07:49PM 35.6703 -104.8806 266° West 393 452 38,000  Level Albuquerque Center
07:50PM 35.6625 -105.0381 267° West 394 453 38,000  Level Albuquerque Center
07:51PM 35.6653 -105.1714 272° West 390 449 38,000  Level Albuquerque Center
07:52PM 35.7086 -105.2931 294° West 386 444 38,000  Level Albuquerque Center
07:53PM 35.7483 -105.4181 291° West 387 445 38,000  Level Albuquerque Center
07:54PM 35.7928 -105.5486 293° West 395 455 38,000  Level Albuquerque Center
07:55PM 35.8325 -105.6753 291° West 399 459 38,000  Level Albuquerque Center
07:56PM 35.8744 -105.8011 292° West 398 458 38,000  Level Albuquerque Center
07:57PM 35.9142 -105.9250 292° West 393 452 38,000  Level Albuquerque Center
07:58PM 35.9539 -106.0464 292° West 386 444 38,000  Level Albuquerque Center
07:59PM 35.9914 -106.1672 291° West 382 440 38,000  Level Albuquerque Center
08:00PM 36.0389 -106.3153 292° West 387 445 38,000  Level Albuquerque Center
08:02PM 36.0786 -106.4419 291° West 394 453 38,000  Level Albuquerque Center
08:03PM 36.1183 -106.5667 292° West 393 452 38,000  Level Albuquerque Center
08:04PM 36.1572 -106.6911 291° West 391 450 38,000  Level Albuquerque Center
08:05PM 36.1986 -106.8267 291° West 389 448 38,000  Level Albuquerque Center
08:06PM 36.2361 -106.9456 291° West 387 445 38,000  Level Albuquerque Center
08:07PM 36.2792 -107.0831 291° West 385 443 38,000  Level Albuquerque Center
08:08PM 36.3147 -107.2003 291° West 383 441 38,000  Level Albuquerque Center
08:09PM 36.3564 -107.3383 291° West 383 441 38,000  Level Albuquerque Center
08:09PM 36.3756 -107.3958 293° West 383 441 38,000  Level Denver Center
08:10PM 36.4161 -107.5328 290° West 381 438 38,000  Level Denver Center
08:11PM 36.4511 -107.6497 290° West 379 436 38,000  Level Denver Center
08:12PM 36.4922 -107.7883 290° West 381 438 38,000  Level Denver Center
08:13PM 36.5283 -107.9064 291° West 382 440 38,000  Level Denver Center
08:14PM 36.5694 -108.0444 290° West 382 440 38,000  Level Denver Center
08:15PM 36.6044 -108.1622 290° West 382 440 38,000  Level Denver Center
08:16PM 36.6450 -108.2989 290° West 378 435 38,000  Level Denver Center
08:18PM 36.6794 -108.4175 290° West 381 438 38,000  Level Denver Center
08:19PM 36.7133 -108.5333 290° West 376 433 38,000  Level Denver Center
08:20PM 36.7531 -108.6689 290° West 374 430 38,000  Level Denver Center
08:21PM 36.7861 -108.7853 290° West 374 430 38,000  Level Denver Center
08:22PM 36.8264 -108.9208 290° West 374 430 38,000  Level Denver Center
08:23PM 36.8597 -109.0381 290° West 376 433 38,000  Level Denver Center
08:24PM 36.8994 -109.1725 290° West 371 427 38,000  Level Denver Center
08:25PM 36.9308 -109.2903 288° West 373 429 38,000  Level Denver Center
08:26PM 36.9703 -109.4250 290° West 371 427 38,000  Level Denver Center
08:27PM 37.0028 -109.5450 289° West 378 435 38,000  Level Denver Center
08:28PM 37.0422 -109.6800 290° West 373 429 38,000  Level Denver Center
08:29PM 37.0750 -109.8006 289° West 380 437 38,000  Level Denver Center
08:30PM 37.1089 -109.9186 290° West 378 435 38,000  Level Denver Center
08:31PM 37.1478 -110.0589 289° West 382 440 38,000  Level Denver Center
08:32PM 37.1803 -110.1800 289° West 381 438 38,000  Level Denver Center
08:33PM 37.2153 -110.3058 289° West 383 441 38,000  Level Denver Center
08:34PM 37.2497 -110.4322 289° West 383 441 38,000  Level Denver Center
08:35PM 37.2900 -110.5817 289° West 378 435 38,000  Level Denver Center
08:36PM 37.3244 -110.7047 289° West 376 433 38,000  Level Denver Center
08:37PM 37.3569 -110.8253 289° West 366 421 38,000  Level Denver Center
08:38PM 37.3886 -110.9461 288° West 365 420 38,000  Level Denver Center
08:39PM 37.4217 -111.0658 289° West 362 417 38,000  Level Denver Center
08:40PM 37.4531 -111.1864 288° West 364 419 38,000  Level Denver Center
08:41PM 37.4850 -111.3075 288° West 365 420 38,000  Level Denver Center
08:42PM 37.5236 -111.4533 289° West 365 420 38,000  Level Denver Center
08:43PM 37.5544 -111.5769 287° West 371 427 38,000  Level Denver Center
08:44PM 37.5878 -111.6992 289° West 369 425 38,000  Level Denver Center
08:45PM 37.5994 -111.7481 287° West 369 425 38,000  Level Salt Lake Center
08:46PM 37.6325 -111.8733 288° West 374 430 38,000  Level Salt Lake Center
08:47PM 37.6636 -111.9964 288° West 372 428 38,000  Level Salt Lake Center
08:48PM 37.6947 -112.1181 288° West 367 422 38,000  Level Salt Lake Center
08:49PM 37.7261 -112.2411 288° West 368 423 38,000  Level Salt Lake Center
08:50PM 37.7578 -112.3633 288° West 369 425 38,000  Level Salt Lake Center
08:51PM 37.7944 -112.5094 288° West 367 422 38,000  Level Salt Lake Center
08:52PM 37.8256 -112.6314 288° West 367 422 38,000  Level Salt Lake Center
08:53PM 37.8564 -112.7572 287° West 376 433 38,000  Level Salt Lake Center
08:54PM 37.8875 -112.8808 288° West 375 432 38,000  Level Salt Lake Center
08:55PM 37.9175 -113.0031 287° West 370 426 38,000  Level Salt Lake Center
08:56PM 37.9472 -113.1256 287° West 366 421 38,000  Level Salt Lake Center
08:57PM 37.9831 -113.2722 287° West 366 421 38,000  Level Salt Lake Center
08:58PM 38.0122 -113.3928 287° West 360 414 38,000  Level Salt Lake Center
08:59PM 38.0411 -113.5150 287° West 364 419 38,000  Level Salt Lake Center
09:00PM 38.0719 -113.6372 288° West 364 419 38,000  Level Salt Lake Center
09:01PM 38.1003 -113.7589 287° West 361 415 38,000  Level Salt Lake Center
09:02PM 38.1297 -113.8817 287° West 365 420 38,000  Level Salt Lake Center
09:03PM 38.1647 -114.0264 287° West 359 413 38,000  Level Salt Lake Center
09:04PM 38.1925 -114.1483 286° West 361 415 38,000  Level Salt Lake Center
09:05PM 38.2217 -114.2719 287° West 364 419 38,000  Level Salt Lake Center
09:06PM 38.2506 -114.3961 287° West 366 421 38,000  Level Salt Lake Center
09:07PM 38.2642 -114.5250 278° West 367 422 38,000  Level Salt Lake Center
09:08PM 38.2756 -114.6569 276° West 376 433 38,000  Level Salt Lake Center
09:09PM 38.2897 -114.7861 278° West 371 427 38,000  Level Salt Lake Center
09:10PM 38.3039 -114.9406 277° West 368 423 38,000  Level Salt Lake Center
09:11PM 38.3172 -115.0689 278° West 366 421 38,000  Level Salt Lake Center
09:12PM 38.3289 -115.1978 277° West 368 423 38,000  Level Salt Lake Center
09:13PM 38.3414 -115.3256 277° West 365 420 38,000  Level Salt Lake Center
09:14PM 38.3522 -115.4519 276° West 370 426 38,000  Level Salt Lake Center
09:15PM 38.3653 -115.5836 277° West 375 432 38,000  Level Salt Lake Center
09:16PM 38.3767 -115.7144 276° West 372 428 38,000  Level Salt Lake Center
09:18PM 38.3911 -115.8706 277° West 371 427 38,000  Level Salt Lake Center
09:19PM 38.4022 -115.9994 276° West 368 423 38,000  Level Salt Lake Center
09:20PM 38.4144 -116.1269 277° West 364 419 38,000  Level Salt Lake Center
09:21PM 38.4061 -116.2550 265° West 365 420 38,000  Level Salt Lake Center
09:22PM 38.3722 -116.3844 252° West 385 443 38,000  Level Salt Lake Center
09:22PM 38.3447 -116.4881 251° West 386 444 38,000  Level Oakland Center
09:23PM 38.3108 -116.6175 252° West 387 445 38,000  Level Oakland Center
09:24PM 38.3044 -116.6433 253° West 386 444 38,000  Level Salt Lake Center
09:25PM 38.2708 -116.7728 252° West 384 442 38,000  Level Salt Lake Center
09:25PM 38.2442 -116.8769 252° West 388 447 38,000  Level Oakland Center
09:26PM 38.2281 -117.0092 261° West 379 436 38,000  Level Oakland Center
09:28PM 38.2108 -117.1483 261° West 384 442 38,000  Level Oakland Center
09:29PM 38.1903 -117.2844 259° West 391 450 38,000  Level Oakland Center
09:30PM 38.1683 -117.4469 260° West 390 449 38,000  Level Oakland Center
09:31PM 38.1517 -117.5650 260° West 388 447 38,000  Level Oakland Center
09:32PM 38.1333 -117.6989 260° West 386 444 38,000  Level Oakland Center
09:33PM 38.1131 -117.8336 259° West 388 447 38,000  Level Oakland Center
09:34PM 38.0903 -117.9950 260° West 387 445 38,000  Level Oakland Center
09:35PM 38.0711 -118.1292 260° West 387 445 38,000  Level Oakland Center
09:36PM 38.0514 -118.2628 259° West 386 444 38,000  Level Oakland Center
09:37PM 38.0328 -118.3978 260° West 389 448 38,000  Level Oakland Center
09:38PM 38.0128 -118.5319 259° West 388 447 38,000  Level Oakland Center
09:39PM 37.9922 -118.6669 259° West 391 450 38,000  Level Oakland Center
09:40PM 37.9719 -118.8036 259° West 393 452 38,000  Level Oakland Center
09:41PM 37.9519 -118.9397 259° West 394 453 38,000  Level Oakland Center
09:42PM 37.9311 -119.0742 259° West 391 450 38,000  Level Oakland Center
09:43PM 37.9092 -119.2206 259° West 388 447 38,000  Level Oakland Center
09:44PM 37.8878 -119.3556 259° West 390 449 38,000  Level Oakland Center
09:45PM 37.8667 -119.4897 259° West 391 450 38,000 -480 Level Oakland Center
09:46PM 37.8447 -119.6258 259° West 392 451 37,100 -900 Descending Oakland Center
09:47PM 37.8233 -119.7642 259° West 400 460 36,200 -960 Descending Oakland Center
09:48PM 37.8014 -119.9047 259° West 407 468 35,200 -1,020 Descending Oakland Center
09:49PM 37.7786 -120.0453 258° West 406 467 34,200 -1,140 Descending Oakland Center
09:50PM 37.7508 -120.2108 258° West 401 461 33,000 -1,380 Descending Oakland Center
09:51PM 37.7286 -120.3464 258° West 395 455 31,500 -1,800 Descending Oakland Center
09:52PM 37.7292 -120.4769 270° West 378 435 29,400 -2,100 Descending Oakland Center
09:53PM 37.7311 -120.6050 271° West 368 423 27,300 -2,100 Descending Oakland Center
09:54PM 37.6961 -120.7261 250° West 369 425 25,200 -2,040 Descending Oakland Center
09:55PM 37.6611 -120.8436 249° West 361 415 23,200 -2,040 Descending Oakland Center
09:56PM 37.6333 -120.9500 252° West 353 406 21,500 -1,920 Descending Northern Cal TRACON
09:57PM 37.6167 -121.0500 258° West 336 387 19,800 -1,800 Descending Northern Cal TRACON
09:58PM 37.6000 -121.1667 260° West 325 374 18,000 -1,740 Descending Northern Cal TRACON
09:59PM 37.5833 -121.2833 260° West 313 360 16,400 -1,680 Descending Northern Cal TRACON
10:00PM 37.5833 -121.3833 270° West 301 346 14,700 -1,740 Descending Northern Cal TRACON
10:01PM 37.5667 -121.4833 258° West 292 336 13,000 -1,740 Descending Northern Cal TRACON
10:02PM 37.5500 -121.5833 258° West 291 335 11,300 -1,140 Descending Northern Cal TRACON
10:03PM 37.5333 -121.6833 258° West 285 328 10,800 -1,200 Descending Northern Cal TRACON
10:04PM 37.5167 -121.7667 256° West 289 333 9,000 -1,380 Descending Northern Cal TRACON
10:05PM 37.4833 -121.8667 247° West 282 325 8,100 -1,080 Descending Northern Cal TRACON
10:06PM 37.5000 -121.9500 284° West 269 310 6,900 -1,380 Descending Northern Cal TRACON
10:07PM 37.5167 -122.0500 282° West 253 291 5,400 -1,260 Descending Northern Cal TRACON
10:08PM 37.5333 -122.1167 288° West 209 241 4,400 -960 Descending Northern Cal TRACON
10:08PM 37.5483 -122.1400 309° West 222 255 4,100 -1,080 Descending Oakland Center
10:09PM 37.5658 -122.1961 291° West 189 217 2,900 -1,140 Descending Oakland Center
10:10PM 37.5800 -122.2461 290° West 171 197 1,900 -840 Descending Oakland Center
10:11PM 37.5850 -122.2900 278° West 142 163 1,200 -660 Descending Oakland Center
10:12PM 37.6003 -122.3311 295° West 134 154 600 -600 Descending Oakland Center
10:15PM 37.6167 -122.3667 322° Northwest  Level FlightAware Approximate
10:22PM 37.6191 -122.3752 322° Northwest  Level Estimated